Latest Weather Observations for Shark Bay Airport

IDW60801

Issued at 7:03 am WST Thursday 21 October 2021 (issued every 10 minutes, with the page automatically refreshed every 10 minutes)

About weather observations | Map of weather stations | Latest weather observations for WA | Other Formats
Station Details ID: 006105 Name: SHARK BAY AIRPORT Lat: -25.89 Lon: 113.58 Height: 33.8 m
Data from the previous 72 hours. | See also: Recent months at Shark Bay Airport
Date/Time
WST
Temp
°C
App
Temp
°C
Dew
Point
°C
Rel
Hum
%
Delta-T
°C
Wind Press
QNH
hPa
Press
MSL
hPa
Rain since
9am
mm
Dir  Spd
km/h
Gust
km/h
Spd
kts
Gust
kts
21/07:00am 20.2 19.3 14.8 71 3.2 S 13 20 7 11 1018.5 1018.4 0.0
21/06:30am 18.1 18.3 14.6 80 2.0 S 7 11 4 6 1018.2 1018.1 0.0
21/06:00am 17.9 17.5 14.0 78 2.2 SSW 9 11 5 6 1017.8 1017.7 0.0
21/05:30am 18.1 17.4 14.2 78 2.2 SSE 11 15 6 8 1017.4 1017.3 0.0
21/05:00am 17.8 17.8 14.1 79 2.1 WSW 7 9 4 5 1017.2 1017.1 0.0
21/04:30am 17.9 17.0 13.8 77 2.3 WSW 11 15 6 8 1017.2 1017.1 0.0
21/04:00am 18.5 16.3 13.4 72 2.9 SSW 17 26 9 14 1017.2 1017.1 0.0
21/03:30am 17.8 17.1 13.3 75 2.5 S 9 13 5 7 1016.9 1016.8 0.0
21/03:00am 17.5 15.9 12.8 74 2.6 SSW 13 15 7 8 1017.0 1016.9 0.0
21/02:30am 17.5 16.2 12.4 72 2.8 SSW 11 13 6 7 1017.1 1017.0 0.0
21/02:00am 18.3 16.7 12.7 70 3.1 SSW 13 19 7 10 1017.2 1017.1 0.0
21/01:30am 18.9 17.0 11.9 64 3.9 SSW 13 19 7 10 1017.4 1017.3 0.0
21/01:00am 19.1 16.5 12.1 64 3.9 S 17 24 9 13 1017.6 1017.5 0.0
21/12:30am 19.1 16.8 11.9 63 4.0 SSW 15 20 8 11 1017.8 1017.7 0.0
21/12:00am 19.2 16.8 12.7 66 3.6 SSW 17 22 9 12 1018.0 1017.9 0.0
 
Date/Time
WST
Temp
°C
App
Temp
°C
Dew
Point
°C
Rel
Hum
%
Delta-T
°C
Wind Press
QNH
hPa
Press
MSL
hPa
Rain since
9am
mm
Dir  Spd
km/h
Gust
km/h
Spd
kts
Gust
kts
20/11:30pm 19.2 16.6 12.0 63 4.0 SSW 17 24 9 13 1018.3 1018.2 0.0
20/11:00pm 19.2 16.3 12.2 64 3.9 SSW 19 24 10 13 1018.2 1018.1 0.0
20/10:30pm 19.3 16.1 11.3 60 4.4 SSW 19 28 10 15 1018.4 1018.3 0.0
20/10:00pm 19.3 16.4 11.1 59 4.5 SW 17 26 9 14 1018.6 1018.5 0.0
20/09:30pm 19.4 16.0 11.2 59 4.5 SSW 20 28 11 15 1018.6 1018.5 0.0
20/09:00pm 19.4 15.6 11.2 59 4.5 SSW 22 30 12 16 1018.5 1018.4 0.0
20/08:30pm 19.5 17.1 12.5 64 3.9 SSW 17 24 9 13 1018.5 1018.4 0.0
20/08:00pm 19.2 16.7 12.2 64 3.9 SW 17 22 9 12 1018.3 1018.2 0.0
20/07:30pm 19.5 16.8 11.8 61 4.3 SW 17 24 9 13 1018.0 1017.9 0.0
20/07:00pm 19.8 15.7 11.3 58 4.7 WSW 24 32 13 17 1017.7 1017.6 0.0
20/06:30pm 20.1 17.3 12.6 62 4.2 SW 19 26 10 14 1017.5 1017.4 0.0
20/06:00pm 20.3 16.7 12.0 59 4.6 SW 22 30 12 16 1017.4 1017.3 0.0
20/05:30pm 20.6 17.7 12.8 61 4.4 WSW 20 24 11 13 1017.2 1017.1 0.0
20/05:00pm 21.0 17.4 12.9 60 4.6 WSW 24 32 13 17 1016.9 1016.8 0.0
20/04:30pm 22.6 19.0 11.7 50 6.1 WSW 22 33 12 18 1016.7 1016.6 0.0
20/04:00pm 22.4 18.8 11.8 51 6.0 SW 22 33 12 18 1016.5 1016.4 0.0
20/03:30pm 23.0 19.5 12.3 51 6.1 WSW 22 32 12 17 1016.5 1016.4 0.0
20/03:00pm 23.5 20.1 13.7 54 5.7 WSW 24 33 13 18 1016.7 1016.6 0.0
20/02:30pm 23.1 19.3 11.2 47 6.6 W 22 32 12 17 1016.9 1016.8 0.0
20/02:00pm 23.2 19.5 11.6 48 6.5 WSW 22 32 12 17 1016.9 1016.8 0.0
20/01:30pm 23.5 20.8 13.4 53 5.9 WSW 20 33 11 18 1017.1 1017.0 0.0
20/01:00pm 23.0 19.4 11.7 49 6.4 WSW 22 33 12 18 1016.9 1016.8 0.0
20/12:30pm 22.6 19.6 12.5 53 5.8 SW 20 32 11 17 1017.1 1017.0 0.0
20/12:00pm 23.1 20.1 12.4 51 6.1 WSW 20 32 11 17 1017.3 1017.2 0.0
20/11:30am 24.0 21.1 12.9 50 6.4 W 20 33 11 18 1017.9 1017.8 0.0
20/11:00am 23.2 20.4 13.1 53 5.8 WSW 20 33 11 18 1018.3 1018.2 0.0
20/10:30am 22.7 19.3 12.6 53 5.8 W 22 32 12 17 1018.3 1018.2 0.0
20/10:00am 21.8 18.0 12.4 55 5.3 W 24 30 13 16 1018.5 1018.4 0.0
20/09:30am 21.8 19.0 12.6 56 5.2 W 19 30 10 16 1018.3 1018.2 0.0
20/09:00am 21.8 20.0 13.4 59 4.8 WSW 15 20 8 11 1018.0 1017.9 0.4
20/08:30am 18.5 15.3 13.1 71 3.0 SW 22 30 12 16 1018.1 1018.0 0.4
20/08:00am 20.3 18.1 13.3 64 4.0 WSW 17 28 9 15 1017.6 1017.5 0.4
20/07:30am 19.6 18.9 14.2 71 3.1 SW 11 17 6 9 1017.1 1017.0 0.4
20/07:00am 18.0 16.5 14.1 78 2.2 SW 15 20 8 11 1016.8 1016.7 0.4
20/06:30am 16.5 16.3 14.7 89 1.0 W 9 11 5 6 1016.4 1016.3 0.4
20/06:00am 15.0 14.0 13.5 91 0.8 NNW 11 13 6 7 1016.0 1015.9 0.4
20/05:30am 14.7 13.5 12.9 89 1.0 NW 11 11 6 6 1015.6 1015.5 0.4
20/05:00am 14.9 14.4 11.9 82 1.6 WSW 6 9 3 5 1015.2 1015.1 0.4
20/04:30am 15.4 14.3 12.0 80 1.8 SW 9 11 5 6 1015.2 1015.1 0.4
20/04:00am 15.5 14.2 11.1 75 2.4 WSW 9 11 5 6 1015.2 1015.1 0.4
20/03:30am 17.0 14.7 11.7 71 2.9 SW 15 20 8 11 1014.8 1014.7 0.4
20/03:00am 17.3 14.3 12.4 73 2.7 SW 20 28 11 15 1015.1 1015.0 0.4
20/02:30am 16.9 15.0 11.8 72 2.8 WSW 13 17 7 9 1015.3 1015.2 0.4
20/02:00am 16.5 14.4 11.2 71 2.9 WSW 13 17 7 9 1015.4 1015.3 0.4
20/01:30am 16.5 14.2 10.4 67 3.2 W 13 17 7 9 1015.5 1015.4 0.4
20/01:00am 16.8 13.5 9.7 63 3.7 WSW 17 20 9 11 1015.5 1015.4 0.4
20/12:30am 16.8 13.2 8.2 57 4.4 WSW 17 24 9 13 1015.8 1015.7 0.4
20/12:00am 17.6 14.0 10.0 61 4.0 WSW 19 24 10 13 1016.0 1015.9 0.4
 
Date/Time
WST
Temp
°C
App
Temp
°C
Dew
Point
°C
Rel
Hum
%
Delta-T
°C
Wind Press
QNH
hPa
Press
MSL
hPa
Rain since
9am
mm
Dir  Spd
km/h
Gust
km/h
Spd
kts
Gust
kts
19/11:30pm 17.9 14.8 11.5 66 3.5 WSW 19 28 10 15 1016.2 1016.1 0.4
19/11:00pm 17.5 14.1 10.4 63 3.8 WSW 19 24 10 13 1016.0 1015.9 0.4
19/10:30pm 17.9 13.5 10.5 62 4.0 WSW 24 32 13 17 1016.1 1016.0 0.4
19/10:00pm 17.5 16.2 13.8 79 2.1 SW 13 19 7 10 1015.9 1015.8 0.4
19/09:30pm 18.4 14.4 11.7 65 3.7 W 24 32 13 17 1016.0 1015.9 0.4
19/09:00pm 18.4 13.3 11.9 66 3.6 W 30 39 16 21 1015.8 1015.7 0.4
19/08:30pm 18.3 13.8 11.4 64 3.8 W 26 43 14 23 1015.3 1015.2 0.4
19/08:00pm 19.0 14.0 10.8 59 4.4 W 28 41 15 22 1014.9 1014.8 0.4
19/07:30pm 18.7 14.3 10.5 59 4.4 W 24 39 13 21 1014.4 1014.3 0.4
19/07:00pm 18.7 12.9 10.8 60 4.3 W 32 41 17 22 1014.2 1014.1 0.4
19/06:30pm 19.0 13.7 11.3 61 4.2 W 30 41 16 22 1014.1 1014.0 0.4
19/06:00pm 19.6 13.7 11.1 58 4.6 W 33 46 18 25 1013.6 1013.5 0.4
19/05:30pm 20.3 13.8 10.4 53 5.4 W 35 46 19 25 1013.1 1013.0 0.4
19/05:00pm 20.7 13.9 10.8 53 5.4 W 37 50 20 27 1012.8 1012.7 0.4
19/04:30pm 21.5 13.0 9.1 45 6.6 W 44 65 24 35 1012.4 1012.3 0.4
19/04:03pm 21.8 13.3 8.7 43 6.9 W 43 61 23 33 1012.2 1012.1 0.4
19/04:00pm 22.2 14.6 10.4 47 6.5 W 41 57 22 31 1012.3 1012.2 0.4
19/03:30pm 22.1 13.1 8.9 43 7.0 W 46 59 25 32 1011.9 1011.8 0.4
19/03:14pm 22.1 13.2 9.3 44 6.9 W 46 67 25 36 1011.7 1011.6 0.4
19/03:00pm 22.3 14.1 9.8 45 6.8 W 43 57 23 31 1011.6 1011.5 0.4
19/02:30pm 22.4 13.8 11.8 51 6.0 W 48 67 26 36 1011.4 1011.3 0.4
19/02:00pm 22.6 13.4 11.0 48 6.4 W 50 72 27 39 1011.2 1011.1 0.4
19/01:45pm 22.5 15.1 13.0 55 5.5 W 44 65 24 35 1011.2 1011.1 0.4
19/01:30pm 22.3 14.2 12.0 52 5.8 W 46 61 25 33 1011.1 1011.0 0.4
19/01:06pm 22.8 13.4 10.3 45 6.9 WNW 50 70 27 38 1011.1 1011.0 0.4
19/01:00pm 23.5 14.8 11.2 46 6.9 WNW 48 65 26 35 1011.0 1010.9 0.4
19/12:43pm 22.8 14.4 11.2 48 6.5 WNW 46 65 25 35 1010.8 1010.7 0.4
19/12:30pm 23.6 15.5 12.0 48 6.6 WNW 46 63 25 34 1010.7 1010.6 0.4
19/12:15pm 21.9 13.2 10.1 47 6.4 WNW 46 67 25 36 1010.7 1010.6 0.4
19/12:00pm 23.2 15.5 12.2 50 6.3 WNW 44 57 24 31 1010.6 1010.5 0.4
19/11:35am 22.8 14.6 11.8 50 6.2 WNW 46 65 25 35 1010.5 1010.4 0.4
19/11:30am 22.8 13.9 11.8 50 6.2 WNW 50 65 27 35 1010.5 1010.4 0.4
19/11:09am 22.2 15.5 13.3 57 5.1 WNW 41 59 22 32 1010.4 1010.3 0.2
19/11:00am 22.0 16.0 14.4 62 4.5 WNW 39 56 21 30 1010.2 1010.1 0.2
19/10:30am 20.9 14.6 14.5 67 3.7 WNW 41 56 22 30 1009.9 1009.8 0.2
19/10:00am 20.0 12.8 13.2 65 3.9 W 43 63 23 34 1009.9 1009.8 0.2
19/09:59am 20.4 13.3 13.4 64 4.0 WNW 43 63 23 34 1009.8 1009.7 0.2
19/09:30am 19.2 13.3 14.7 75 2.6 WNW 39 52 21 28 1009.4 1009.3 0.0
19/09:00am 17.7 13.1 16.2 91 0.9 WNW 35 50 19 27 1009.0 1008.9 9.2
19/08:30am 16.5 11.3 15.5 94 0.6 WNW 37 57 20 31 1008.4 1008.3 9.2
19/08:17am 16.5 11.0 15.7 95 0.5 WNW 39 57 21 31 1008.4 1008.3 9.2
19/08:00am 15.8 8.6 14.8 94 0.6 WNW 46 63 25 34 1008.0 1007.9 9.0
19/07:38am 16.1 9.2 15.5 96 0.3 WNW 46 67 25 36 1007.9 1007.8 8.8
19/07:30am 16.2 9.3 15.6 96 0.4 WNW 46 61 25 33 1007.8 1007.7 8.6
19/07:20am 16.6 11.2 16.0 96 0.4 WNW 39 57 21 31 1007.3 1007.2 8.2
19/07:00am 16.5 10.3 16.0 97 0.3 WNW 43 57 23 31 1006.7 1006.6 7.8
19/06:30am 16.4 10.9 15.8 96 0.4 WNW 39 57 21 31 1006.8 1006.7 6.6
19/06:11am 16.5 10.7 16.0 97 0.3 WNW 41 59 22 32 1006.9 1006.8 6.2
19/06:00am 16.5 10.3 15.9 96 0.4 WNW 43 59 23 32 1006.0 1005.9 5.8
19/05:30am 16.8 10.1 16.2 96 0.4 WNW 46 65 25 35 1005.9 1005.8 5.2
19/05:01am 17.4 12.6 16.6 95 0.5 WNW 37 57 20 31 1005.2 1005.1 4.0
19/05:00am 17.5 13.2 16.9 96 0.4 WNW 35 48 19 26 1005.5 1005.4 4.0
19/04:30am 17.5 11.0 16.7 95 0.5 W 46 69 25 37 1004.6 1004.5 4.0
19/04:05am 18.7 14.8 17.9 95 0.5 W 35 54 19 29 1004.2 1004.1 3.6
19/04:00am 18.9 15.5 18.1 95 0.5 W 33 44 18 24 1003.9 1003.8 3.6
19/03:46am 19.3 14.4 17.3 88 1.2 NW 39 78 21 42 1003.2 1003.1 3.2
19/03:45am 19.7 15.0 17.7 88 1.2 NNW 39 78 21 42 1003.2 1003.1 3.0
19/03:43am 20.6 16.2 18.4 87 1.4 NNW 39 78 21 42 1003.0 1002.9 2.6
19/03:30am 22.9 19.1 19.7 82 2.1 N 39 59 21 32 1002.0 1001.8 0.0
19/03:05am 22.9 18.3 19.7 82 2.1 NNW 43 61 23 33 1002.9 1002.8 0.0
19/03:00am 22.9 18.3 19.7 82 2.1 NNW 43 59 23 32 1002.9 1002.8 0.0
19/02:30am 22.7 18.0 19.5 82 2.0 N 43 61 23 33 1003.1 1003.0 0.0
19/02:00am 22.6 18.0 19.6 83 1.9 NNW 43 72 23 39 1004.0 1003.9 0.0
19/01:30am 22.4 18.0 19.4 83 1.9 N 41 59 22 32 1003.8 1003.7 0.0
19/01:00am 22.1 18.7 19.1 83 1.9 N 35 57 19 31 1004.1 1004.0 0.0
19/12:52am 22.0 19.0 19.0 83 1.9 N 33 57 18 31 1003.9 1003.8 0.0
19/12:30am 21.8 18.7 18.8 83 1.9 N 33 48 18 26 1004.0 1003.9 0.0
19/12:05am 21.5 18.5 18.7 84 1.8 N 32 52 17 28 1004.5 1004.4 0.0
19/12:00am 21.3 18.1 18.7 85 1.6 N 33 48 18 26 1004.6 1004.5 0.0
 
Date/Time
WST
Temp
°C
App
Temp
°C
Dew
Point
°C
Rel
Hum
%
Delta-T
°C
Wind Press
QNH
hPa
Press
MSL
hPa
Rain since
9am
mm
Dir  Spd
km/h
Gust
km/h
Spd
kts
Gust
kts
18/11:30pm 21.6 17.5 18.2 81 2.1 N 37 52 20 28 1005.6 1005.5 0.0
18/11:02pm 21.6 17.7 17.8 79 2.4 N 35 54 19 29 1006.0 1005.9 0.0
18/11:00pm 21.6 17.7 17.8 79 2.4 N 35 48 19 26 1005.9 1005.8 0.0
18/10:34pm 22.0 18.2 16.7 72 3.2 N 32 52 17 28 1006.6 1006.5 0.0
18/10:30pm 21.9 18.1 16.6 72 3.2 N 32 44 17 24 1006.4 1006.3 0.0
18/10:00pm 22.2 17.2 15.1 64 4.2 N 35 54 19 29 1007.1 1007.0 0.0
18/09:42pm 22.2 18.3 14.3 61 4.6 N 28 46 15 25 1006.8 1006.7 0.0
18/09:30pm 22.1 18.9 14.2 61 4.6 N 24 33 13 18 1007.0 1006.9 0.0
18/09:00pm 21.9 19.1 14.3 62 4.5 N 22 33 12 18 1006.8 1006.7 0.0
18/08:30pm 21.5 19.1 14.4 64 4.2 N 20 33 11 18 1006.8 1006.7 0.0
18/08:00pm 21.5 18.4 14.6 65 4.1 NNW 24 37 13 20 1007.0 1006.9 0.0
18/07:30pm 21.5 19.5 14.9 66 3.9 NNW 19 26 10 14 1007.1 1007.0 0.0
18/07:00pm 21.6 18.9 14.5 64 4.2 N 22 30 12 16 1006.7 1006.6 0.0
18/06:30pm 21.6 18.8 14.3 63 4.3 N 22 32 12 17 1006.6 1006.5 0.0
18/06:00pm 22.2 18.2 13.0 56 5.3 NNW 26 37 14 20 1006.8 1006.7 0.0
18/05:30pm 23.2 19.8 11.3 47 6.7 NNW 20 33 11 18 1006.8 1006.7 0.0
18/05:00pm 24.7 20.6 10.2 40 8.0 NNW 22 32 12 17 1006.9 1006.8 0.0
18/04:30pm 24.2 20.4 9.8 40 7.9 NNW 20 32 11 17 1007.0 1006.9 0.0
18/04:00pm 25.1 21.4 10.2 39 8.3 N 20 32 11 17 1007.5 1007.4 0.0
18/03:30pm 25.5 21.4 10.1 38 8.5 N 22 33 12 18 1007.8 1007.7 0.0
18/03:10pm 25.9 20.8 10.5 38 8.6 NNE 28 54 15 29 1007.6 1007.5 0.0
18/03:00pm 26.0 21.4 9.8 36 9.0 NNE 24 41 13 22 1007.7 1007.6 0.0
18/02:30pm 26.8 23.1 10.1 35 9.3 N 20 32 11 17 1008.1 1008.0 0.0
18/02:00pm 25.9 21.7 8.4 33 9.5 NNW 20 41 11 22 1008.8 1008.7 0.0
18/01:30pm 27.3 23.3 9.2 32 10.0 WNW 20 33 11 18 1009.3 1009.2 0.0
18/01:00pm 25.3 22.4 11.1 41 8.0 NW 17 33 9 18 1009.9 1009.8 0.0
18/12:30pm 25.2 22.0 11.4 42 7.8 N 19 32 10 17 1010.3 1010.2 0.0
18/12:00pm 25.5 21.9 12.0 43 7.7 NNW 22 32 12 17 1010.6 1010.5 0.0
18/11:30am 25.1 22.6 12.3 45 7.4 NNE 17 24 9 13 1010.9 1010.8 0.0
18/11:00am 23.5 20.4 11.5 47 6.8 WNW 19 24 10 13 1011.4 1011.3 0.0
18/10:30am 23.7 21.4 13.0 51 6.2 NE 17 28 9 15 1011.5 1011.4 0.0
18/10:00am 23.0 20.6 12.6 52 5.9 NNE 17 26 9 14 1011.9 1011.8 0.0
18/09:30am 22.4 21.0 9.6 44 6.9 NW 7 17 4 9 1012.0 1011.9 0.0
18/09:00am 22.1 21.2 10.6 48 6.3 NNW 6 11 3 6 1012.0 1011.9 0.0
18/08:30am 20.9 19.7 11.5 55 5.2 NE 9 15 5 8 1011.9 1011.8 0.0
18/08:00am 21.1 19.4 12.5 58 4.9 NNE 13 19 7 10 1011.7 1011.6 0.0
18/07:30am 19.7 18.2 13.2 66 3.7 NE 13 15 7 8 1011.7 1011.6 0.0

Other formats

Comma delimited format used in spreadsheet applications
http://www.bom.gov.au/fwo/IDW60801/IDW60801.95402.axf

JavaScript Object Notation format (JSON) in row-major order
http://www.bom.gov.au/fwo/IDW60801/IDW60801.95402.json

Data quality

Most of these data are generated automatically and are frequently updated. Quality checks on data are not normally performed. It is possible for incorrect values to appear. Refer to information at About Latest Weather Observations and please check the disclaimer before using these data.